Time;durP1;ratioP1;P1;durP2;ratioP2;P2;SDS_P1;SDS_P2;PMS_P1;PMS_P2;Temp;Humidity;BMP_temperature;BMP_pressure;BME280_temperature;BME280_humidity;BME280_pressure;Samples;Min_cycle;Max_cycle;Signal;HPM_P1;HPM_P2
2023/01/20 00:01:36;;;;;;;1.00;1.00;;;2.50;99.90;;;;;;4404984;32;20754;-73
2023/01/20 00:04:02;;;;;;;0.70;0.70;;;2.60;99.90;;;;;;4409148;32;20085;-74
2023/01/20 00:06:27;;;;;;;0.60;0.60;;;2.50;99.90;;;;;;4407452;32;20885;-73
2023/01/20 00:08:55;;;;;;;0.70;0.70;;;2.50;99.90;;;;;;4407490;32;20070;-73
2023/01/20 00:11:21;;;;;;;0.70;0.70;;;2.50;99.90;;;;;;4395686;32;20093;-74
2023/01/20 00:13:47;;;;;;;0.50;0.50;;;2.60;99.90;;;;;;4390835;32;20077;-75
2023/01/20 00:16:13;;;;;;;0.50;0.50;;;2.60;99.90;;;;;;4401962;32;20066;-73
2023/01/20 00:18:39;;;;;;;0.77;0.77;;;2.60;99.90;;;;;;4406658;32;20315;-74
2023/01/20 00:21:07;;;;;;;0.65;0.65;;;2.60;99.90;;;;;;4402538;32;20077;-74
2023/01/20 00:23:33;;;;;;;3.28;1.37;;;2.70;99.90;;;;;;4399068;32;20077;-73
2023/01/20 00:26:03;;;;;;;0.60;0.60;;;2.70;99.90;;;;;;4400579;32;20747;-73
2023/01/20 00:28:29;;;;;;;0.50;0.50;;;2.80;99.90;;;;;;4395008;32;20498;-74
2023/01/20 00:30:54;;;;;;;1.02;0.95;;;2.80;99.90;;;;;;4400589;32;20101;-73
2023/01/20 00:33:19;;;;;;;0.90;0.90;;;2.80;99.90;;;;;;4406993;32;20424;-75
2023/01/20 00:35:45;;;;;;;0.60;0.60;;;2.80;99.90;;;;;;4410295;32;20109;-74
2023/01/20 00:38:10;;;;;;;0.95;0.95;;;2.90;99.90;;;;;;4407180;32;20070;-73
2023/01/20 00:40:36;;;;;;;1.25;1.10;;;2.90;99.90;;;;;;4401276;32;20120;-74
2023/01/20 00:43:01;;;;;;;0.45;0.45;;;2.90;99.90;;;;;;4390459;32;20794;-74
2023/01/20 00:45:27;;;;;;;1.58;1.37;;;2.90;99.90;;;;;;4402327;32;20411;-73
2023/01/20 00:47:52;;;;;;;0.40;0.40;;;2.90;99.90;;;;;;4405790;32;21350;-74
2023/01/20 00:50:18;;;;;;;0.90;0.90;;;3.00;99.90;;;;;;4406889;32;20286;-74
2023/01/20 00:52:43;;;;;;;0.60;0.60;;;2.90;99.90;;;;;;4395017;32;20066;-74
2023/01/20 00:55:09;;;;;;;0.60;0.60;;;2.90;99.90;;;;;;4404751;32;20155;-75
2023/01/20 00:57:34;;;;;;;0.40;0.40;;;2.80;99.90;;;;;;4394324;32;20557;-74
2023/01/20 00:59:59;;;;;;;1.75;0.93;;;2.80;99.90;;;;;;4398448;32;20113;-74
2023/01/20 01:02:25;;;;;;;1.80;1.10;;;2.80;99.90;;;;;;4405501;32;20439;-74
2023/01/20 01:04:50;;;;;;;0.70;0.70;;;2.90;99.90;;;;;;4406913;32;20077;-74
2023/01/20 01:07:17;;;;;;;1.55;0.95;;;2.80;99.90;;;;;;4406018;32;20070;-73
2023/01/20 01:09:42;;;;;;;0.70;0.70;;;2.80;99.90;;;;;;4404988;32;20100;-74
2023/01/20 01:12:08;;;;;;;1.33;1.10;;;2.80;99.90;;;;;;4393909;32;20061;-74
2023/01/20 01:14:33;;;;;;;2.53;1.17;;;2.70;99.90;;;;;;4396280;32;20085;-75
2023/01/20 01:16:59;;;;;;;0.73;0.73;;;2.70;99.90;;;;;;4409485;32;20181;-74
2023/01/20 01:19:24;;;;;;;0.73;0.73;;;2.80;99.90;;;;;;4410935;32;20089;-74
2023/01/20 01:21:50;;;;;;;0.82;0.82;;;2.80;99.90;;;;;;4401957;32;20066;-75
2023/01/20 01:24:15;;;;;;;0.40;0.40;;;2.80;99.90;;;;;;4408101;32;20065;-75
2023/01/20 01:26:41;;;;;;;1.05;1.02;;;2.80;99.90;;;;;;4396868;32;20153;-74
2023/01/20 01:29:06;;;;;;;0.47;0.47;;;2.90;99.90;;;;;;4395952;32;20119;-73
2023/01/20 01:31:33;;;;;;;0.85;0.85;;;2.80;99.90;;;;;;4405504;32;20116;-73
2023/01/20 01:33:59;;;;;;;0.70;0.70;;;2.80;99.90;;;;;;4409243;32;20158;-73
2023/01/20 01:36:25;;;;;;;0.50;0.50;;;2.90;99.90;;;;;;4394491;32;20713;-74
2023/01/20 01:38:50;;;;;;;23.58;1.48;;;2.80;99.90;;;;;;4407704;32;20120;-74
2023/01/20 01:41:16;;;;;;;1.67;1.20;;;2.80;99.90;;;;;;4397045;32;20120;-74
2023/01/20 01:44:03;;;;;;;3.67;1.00;;;2.80;99.90;;;;;;4392910;32;20517;-74
2023/01/20 01:46:29;;;;;;;0.40;0.40;;;2.70;99.90;;;;;;4393036;32;20183;-73
2023/01/20 01:48:57;;;;;;;0.77;0.77;;;2.80;99.90;;;;;;4409177;32;20491;-73
2023/01/20 01:51:27;;;;;;;1.17;1.15;;;2.90;99.90;;;;;;4402632;32;20082;-74
2023/01/20 01:53:57;;;;;;;0.52;0.52;;;2.80;99.90;;;;;;4401671;32;20065;-74
2023/01/20 01:56:25;;;;;;;1.12;1.08;;;2.70;99.90;;;;;;4398797;32;20203;-75
2023/01/20 01:58:53;;;;;;;2.45;1.40;;;2.60;99.90;;;;;;4397121;32;20057;-75
2023/01/20 02:01:19;;;;;;;2.50;1.95;;;2.60;99.90;;;;;;4406390;32;20545;-74
2023/01/20 02:04:08;;;;;;;0.95;0.95;;;2.60;99.90;;;;;;4408980;32;20074;-74
2023/01/20 02:06:37;;;;;;;2.95;1.85;;;2.60;99.90;;;;;;4396015;32;20069;-73
2023/01/20 02:09:03;;;;;;;0.70;0.70;;;2.70;99.90;;;;;;4407234;32;20517;-74
2023/01/20 02:11:33;;;;;;;1.30;1.25;;;2.60;99.90;;;;;;4393495;32;20070;-75
2023/01/20 02:14:00;;;;;;;0.60;0.60;;;2.60;99.90;;;;;;4391191;32;20061;-73
2023/01/20 02:16:55;;;;;;;0.60;0.60;;;2.60;99.90;;;;;;4405281;32;20164;-74
2023/01/20 02:20:00;;;;;;;0.60;0.60;;;2.60;99.90;;;;;;4397457;32;20529;-74
2023/01/20 02:22:37;;;;;;;0.70;0.70;;;2.80;99.90;;;;;;4376065;32;20062;-74
2023/01/20 02:25:12;;;;;;;0.50;0.50;;;2.70;99.90;;;;;;4404195;32;20091;-73
2023/01/20 02:27:54;;;;;;;0.62;0.62;;;2.70;99.90;;;;;;4401574;32;20608;-75
2023/01/20 02:30:50;;;;;;;4.07;0.82;;;2.60;99.90;;;;;;4401338;32;20766;-74
2023/01/20 02:33:24;;;;;;;4.07;0.98;;;2.60;99.90;;;;;;4398233;32;20066;-74
2023/01/20 02:36:09;;;;;;;0.60;0.60;;;2.60;99.90;;;;;;4408179;32;20069;-73
2023/01/20 02:38:50;;;;;;;0.55;0.55;;;2.40;99.90;;;;;;4408727;32;20629;-74
2023/01/20 02:41:22;;;;;;;0.55;0.55;;;2.50;99.90;;;;;;4395912;32;20077;-75
2023/01/20 02:43:57;;;;;;;1.90;1.00;;;2.40;99.90;;;;;;4391964;32;20254;-74
2023/01/20 02:46:31;;;;;;;0.45;0.45;;;2.40;99.90;;;;;;4405269;32;20070;-74
2023/01/20 02:49:14;;;;;;;1.12;0.80;;;2.30;99.90;;;;;;4408792;32;20407;-73
2023/01/20 02:51:50;;;;;;;1.55;1.30;;;2.30;99.90;;;;;;4399962;32;20166;-74
2023/01/20 02:54:17;;;;;;;1.75;0.93;;;2.40;99.90;;;;;;4402910;32;20069;-73
2023/01/20 02:56:43;;;;;;;2.05;1.45;;;2.40;99.90;;;;;;4395203;32;20140;-74
2023/01/20 02:59:15;;;;;;;0.57;0.57;;;2.40;99.90;;;;;;4395013;32;20483;-75
2023/01/20 03:01:51;;;;;;;0.93;0.65;;;2.50;99.90;;;;;;4406397;32;20086;-74
2023/01/20 03:04:22;;;;;;;1.15;0.73;;;2.40;99.90;;;;;;4404690;32;20135;-74
2023/01/20 03:06:49;;;;;;;;;;;2.40;99.90;;;;;;4408665;32;20089;-74
2023/01/20 03:09:19;;;;;;;0.60;0.60;;;2.40;99.90;;;;;;4407392;32;19994;-73
2023/01/20 03:11:51;;;;;;;0.55;0.55;;;2.40;99.90;;;;;;4389890;32;20141;-74
2023/01/20 03:14:17;;;;;;;1.27;0.82;;;2.40;99.90;;;;;;4392312;32;20172;-74
2023/01/20 03:16:46;;;;;;;0.80;0.80;;;2.40;99.90;;;;;;4406120;32;20186;-73
2023/01/20 03:19:13;;;;;;;3.60;1.98;;;2.40;99.90;;;;;;4405491;32;20175;-73
2023/01/20 03:21:38;;;;;;;1.17;0.80;;;2.40;99.90;;;;;;4401446;32;20063;-75
2023/01/20 03:24:05;;;;;;;0.50;0.50;;;2.50;99.90;;;;;;4404599;32;20388;-74
2023/01/20 03:26:30;;;;;;;0.82;0.82;;;2.50;99.90;;;;;;4397866;32;20062;-74
2023/01/20 03:28:57;;;;;;;0.75;0.75;;;2.40;99.90;;;;;;4397616;32;20097;-74
2023/01/20 03:31:31;;;;;;;0.60;0.60;;;2.40;99.90;;;;;;4405997;32;20086;-73
2023/01/20 03:33:59;;;;;;;3.12;1.30;;;2.50;99.90;;;;;;4405469;32;20074;-73
2023/01/20 03:36:28;;;;;;;13.32;1.55;;;2.40;99.90;;;;;;4406930;32;20521;-75
2023/01/20 03:38:55;;;;;;;3.15;1.33;;;2.40;99.90;;;;;;4405787;32;20299;-72
2023/01/20 03:41:50;;;;;;;1.27;0.88;;;2.40;99.90;;;;;;4395781;32;20085;-74
2023/01/20 03:44:35;;;;;;;1.50;1.00;;;2.40;99.90;;;;;;4382656;32;20078;-75
2023/01/20 03:47:14;;;;;;;1.27;1.17;;;2.40;99.90;;;;;;4407756;32;20121;-74
2023/01/20 03:49:53;;;;;;;0.88;0.88;;;2.30;99.90;;;;;;4406043;32;20587;-73
2023/01/20 03:52:24;;;;;;;1.80;1.48;;;2.30;99.90;;;;;;4398819;32;20081;-76
2023/01/20 03:54:53;;;;;;;1.58;1.48;;;2.20;99.90;;;;;;4404546;32;20294;-74
2023/01/20 03:57:26;;;;;;;0.50;0.50;;;2.20;99.90;;;;;;4394890;32;20078;-74
2023/01/20 03:59:52;;;;;;;1.15;1.05;;;2.20;99.90;;;;;;4397678;32;20544;-73
2023/01/20 04:02:19;;;;;;;0.50;0.50;;;2.10;99.90;;;;;;4406540;32;20092;-73
2023/01/20 04:04:48;;;;;;;0.77;0.77;;;2.00;99.90;;;;;;4407170;32;20086;-74
2023/01/20 04:07:20;;;;;;;0.95;0.95;;;2.00;99.90;;;;;;4407651;32;20054;-74
2023/01/20 04:09:51;;;;;;;0.60;0.60;;;1.90;99.90;;;;;;4405370;32;20192;-74
2023/01/20 04:12:16;;;;;;;2.37;1.55;;;1.90;99.90;;;;;;4388196;32;20513;-75
2023/01/20 04:14:42;;;;;;;0.93;0.93;;;1.90;99.90;;;;;;4394652;32;20075;-74
2023/01/20 04:17:08;;;;;;;1.35;1.08;;;1.90;99.90;;;;;;4406423;32;20074;-74
2023/01/20 04:19:33;;;;;;;0.60;0.60;;;1.90;99.90;;;;;;4405551;32;20119;-74
2023/01/20 04:22:04;;;;;;;1.45;0.98;;;1.90;99.90;;;;;;4398759;32;20097;-75
2023/01/20 04:24:33;;;;;;;;;;;1.90;99.90;;;;;;4403345;32;20129;-74
2023/01/20 04:26:59;;;;;;;0.50;0.50;;;1.90;99.90;;;;;;4394024;32;19984;-74
2023/01/20 04:29:24;;;;;;;0.80;0.80;;;2.00;99.90;;;;;;4395044;32;20116;-74
2023/01/20 04:31:56;;;;;;;0.50;0.50;;;2.00;99.90;;;;;;4406389;32;20057;-73
2023/01/20 04:34:21;;;;;;;0.50;0.50;;;2.00;99.90;;;;;;4406652;32;20066;-74
2023/01/20 04:36:47;;;;;;;0.80;0.80;;;2.10;99.90;;;;;;4405406;32;20070;-73
2023/01/20 04:39:12;;;;;;;0.60;0.60;;;2.00;99.90;;;;;;4405989;32;20105;-74
2023/01/20 04:41:38;;;;;;;0.60;0.60;;;2.00;99.90;;;;;;4391173;32;20589;-74
2023/01/20 04:44:03;;;;;;;0.80;0.80;;;2.00;99.90;;;;;;4391031;32;20082;-73
2023/01/20 04:46:29;;;;;;;0.50;0.50;;;2.10;99.90;;;;;;4404128;32;20093;-73
2023/01/20 04:48:54;;;;;;;0.60;0.60;;;2.10;99.90;;;;;;4406073;32;20505;-74
2023/01/20 04:51:20;;;;;;;0.88;0.88;;;2.10;99.90;;;;;;4399980;32;20093;-74
2023/01/20 04:53:45;;;;;;;0.50;0.50;;;2.10;99.90;;;;;;4400198;32;20141;-74
2023/01/20 04:56:12;;;;;;;0.77;0.77;;;2.00;99.90;;;;;;4396157;32;20094;-75
2023/01/20 04:58:38;;;;;;;0.45;0.45;;;2.10;99.90;;;;;;4396848;32;20069;-75
2023/01/20 05:01:04;;;;;;;0.55;0.55;;;2.00;99.90;;;;;;4403067;32;20423;-73
2023/01/20 05:03:29;;;;;;;1.12;0.90;;;1.90;99.90;;;;;;4405955;32;20078;-73
2023/01/20 05:05:55;;;;;;;1.52;1.17;;;1.80;99.90;;;;;;4406162;32;20062;-74
2023/01/20 05:08:21;;;;;;;2.53;1.58;;;1.90;99.90;;;;;;4406294;32;20057;-74
2023/01/20 05:10:46;;;;;;;2.75;1.48;;;1.90;99.90;;;;;;4396881;32;20065;-74
2023/01/20 05:13:12;;;;;;;1.20;1.12;;;1.90;99.90;;;;;;4387551;32;20103;-73
2023/01/20 05:15:38;;;;;;;0.68;0.68;;;1.90;99.90;;;;;;4399076;32;20552;-73
2023/01/20 05:18:04;;;;;;;2.92;1.50;;;1.90;99.90;;;;;;4406419;32;20455;-73
2023/01/20 05:20:29;;;;;;;0.45;0.45;;;2.00;99.90;;;;;;4404727;32;20073;-74
2023/01/20 05:22:55;;;;;;;1.05;0.73;;;1.90;99.90;;;;;;4367354;32;20248;-74
2023/01/20 05:25:20;;;;;;;1.75;1.23;;;1.90;99.90;;;;;;4367094;32;20099;-74
2023/01/20 05:27:46;;;;;;;0.70;0.70;;;1.90;99.90;;;;;;4359449;32;20628;-75
2023/01/20 05:30:11;;;;;;;0.50;0.50;;;1.90;99.90;;;;;;4362281;32;20183;-74
2023/01/20 05:32:37;;;;;;;1.52;1.05;;;1.90;99.90;;;;;;4372570;32;20053;-75
2023/01/20 05:35:03;;;;;;;0.40;0.40;;;1.90;99.90;;;;;;4366289;32;20144;-73
2023/01/20 05:37:29;;;;;;;0.60;0.60;;;1.90;99.90;;;;;;4386558;32;20147;-73
2023/01/20 05:39:54;;;;;;;0.57;0.57;;;1.80;99.90;;;;;;4402382;32;20144;-73
2023/01/20 05:42:20;;;;;;;2.30;1.55;;;1.80;99.90;;;;;;4388377;32;20098;-74
2023/01/20 05:44:45;;;;;;;1.98;1.37;;;1.90;99.90;;;;;;4396679;32;20078;-73
2023/01/20 05:47:11;;;;;;;1.35;1.25;;;1.70;99.90;;;;;;4405899;32;20152;-73
2023/01/20 05:49:36;;;;;;;3.30;1.62;;;1.70;99.90;;;;;;4407360;32;20069;-73
2023/01/20 05:52:02;;;;;;;0.73;0.73;;;1.70;99.90;;;;;;4388761;32;20062;-74
2023/01/20 05:54:27;;;;;;;0.45;0.45;;;1.80;99.90;;;;;;4359548;32;20418;-73
2023/01/20 05:56:52;;;;;;;0.40;0.40;;;1.60;99.90;;;;;;4370620;32;21707;-74
2023/01/20 05:59:18;;;;;;;0.40;0.40;;;1.40;99.90;;;;;;4397122;32;20480;-73
2023/01/20 06:01:44;;;;;;;1.80;1.35;;;1.50;99.90;;;;;;4395941;32;20066;-73
2023/01/20 06:04:09;;;;;;;1.75;1.27;;;1.50;99.90;;;;;;4380125;32;20842;-73
2023/01/20 06:06:34;;;;;;;0.50;0.50;;;1.50;99.90;;;;;;4373265;32;20110;-75
2023/01/20 06:09:00;;;;;;;0.50;0.50;;;1.40;99.90;;;;;;4364453;32;20062;-75
2023/01/20 06:11:26;;;;;;;3.55;1.75;;;1.50;99.90;;;;;;4356065;32;20074;-75
2023/01/20 06:13:51;;;;;;;1.35;1.25;;;1.50;99.90;;;;;;4344046;32;20176;-74
2023/01/20 06:16:17;;;;;;;0.68;0.68;;;1.40;99.90;;;;;;4362420;32;20090;-75
2023/01/20 06:18:43;;;;;;;2.20;1.90;;;1.50;99.90;;;;;;4326271;32;20209;-75
2023/01/20 06:21:09;;;;;;;1.75;1.48;;;1.40;99.90;;;;;;4326980;32;20101;-76
2023/01/20 06:23:35;;;;;;;2.15;1.10;;;1.50;99.90;;;;;;4302983;32;20220;-74
2023/01/20 06:26:05;;;;;;;1.77;1.23;;;1.40;99.90;;;;;;4306573;32;20130;-74
2023/01/20 06:28:31;;;;;;;0.65;0.65;;;1.50;99.90;;;;;;4324059;32;20399;-74
2023/01/20 06:31:04;;;;;;;1.40;1.12;;;1.40;99.90;;;;;;4292795;32;21610;-74
2023/01/20 06:33:32;;;;;;;0.50;0.50;;;1.50;99.90;;;;;;4325203;32;20170;-74
2023/01/20 06:35:58;;;;;;;0.60;0.60;;;1.50;99.90;;;;;;4326095;32;20077;-74
2023/01/20 06:38:25;;;;;;;2.60;1.75;;;1.60;99.90;;;;;;4338248;32;21080;-75
2023/01/20 06:41:00;;;;;;;0.70;0.70;;;1.50;99.90;;;;;;4333271;32;20379;-74
2023/01/20 06:43:34;;;;;;;0.82;0.82;;;1.50;99.90;;;;;;4349158;32;20855;-75
2023/01/20 06:46:02;;;;;;;0.45;0.45;;;1.50;99.90;;;;;;4363112;32;20161;-75
2023/01/20 06:48:31;;;;;;;0.90;0.90;;;1.60;99.90;;;;;;4366774;32;20536;-75
2023/01/20 06:51:03;;;;;;;1.35;1.25;;;1.50;99.90;;;;;;4361519;32;20665;-76
2023/01/20 06:53:29;;;;;;;1.85;1.62;;;1.50;99.90;;;;;;4363442;32;20970;-76
2023/01/20 06:55:56;;;;;;;0.70;0.70;;;1.30;99.90;;;;;;4378207;32;20127;-74
2023/01/20 06:58:23;;;;;;;0.80;0.80;;;1.30;99.90;;;;;;4370949;32;20760;-75
2023/01/20 07:00:49;;;;;;;0.70;0.70;;;1.20;99.90;;;;;;4341729;32;20824;-74
2023/01/20 07:03:15;;;;;;;0.60;0.60;;;1.20;99.90;;;;;;4341162;32;20114;-74
2023/01/20 07:05:41;;;;;;;0.60;0.60;;;1.20;99.90;;;;;;4354809;32;20085;-74
2023/01/20 07:08:06;;;;;;;0.50;0.50;;;1.20;99.90;;;;;;4366406;32;20149;-74
2023/01/20 07:10:32;;;;;;;0.62;0.62;;;1.20;99.90;;;;;;4367129;32;20246;-76
2023/01/20 07:12:57;;;;;;;0.60;0.60;;;1.30;99.90;;;;;;4369504;32;20311;-75
2023/01/20 07:15:23;;;;;;;0.98;0.98;;;1.20;99.90;;;;;;4371043;32;20106;-74
2023/01/20 07:17:48;;;;;;;0.68;0.68;;;1.20;99.90;;;;;;4363569;32;20996;-76
2023/01/20 07:20:14;;;;;;;0.80;0.80;;;1.30;99.90;;;;;;4351317;32;20157;-74
2023/01/20 07:22:39;;;;;;;3.92;1.15;;;1.30;99.90;;;;;;4356103;32;20074;-73
2023/01/20 07:25:05;;;;;;;0.70;0.70;;;1.30;99.90;;;;;;4349367;32;20860;-74
2023/01/20 07:27:31;;;;;;;1.48;0.95;;;1.30;99.90;;;;;;4365169;32;20503;-75
2023/01/20 07:29:56;;;;;;;1.35;1.25;;;1.40;99.90;;;;;;4328537;32;20462;-74
2023/01/20 07:32:22;;;;;;;0.77;0.77;;;1.30;99.90;;;;;;4308887;32;22595;-75
2023/01/20 07:34:47;;;;;;;0.98;0.90;;;1.40;99.90;;;;;;4309690;32;20243;-73
2023/01/20 07:37:13;;;;;;;1.52;1.42;;;1.40;99.90;;;;;;4361661;32;20105;-74
2023/01/20 07:39:39;;;;;;;9.90;2.37;;;1.40;99.90;;;;;;4363279;32;20089;-75
2023/01/20 07:42:05;;;;;;;2.12;1.62;;;1.30;99.90;;;;;;4361207;32;21058;-75
2023/01/20 07:44:31;;;;;;;0.95;0.93;;;1.30;99.90;;;;;;4361364;32;20525;-74
2023/01/20 07:46:57;;;;;;;0.90;0.90;;;1.40;99.90;;;;;;4369747;32;20086;-75
2023/01/20 07:49:22;;;;;;;16.98;1.95;;;1.40;99.90;;;;;;4367004;32;20090;-73
2023/01/20 07:51:48;;;;;;;2.70;1.55;;;1.30;99.90;;;;;;4365441;32;20352;-74
2023/01/20 07:54:13;;;;;;;1.15;0.95;;;1.20;99.90;;;;;;4357016;32;20883;-74
2023/01/20 07:56:39;;;;;;;2.37;1.52;;;1.30;99.90;;;;;;4357614;32;20105;-76
2023/01/20 07:59:04;;;;;;;0.68;0.68;;;1.30;99.90;;;;;;4346624;32;20525;-72
2023/01/20 08:01:31;;;;;;;2.28;1.23;;;1.40;99.90;;;;;;4325413;32;20468;-74
2023/01/20 08:03:59;;;;;;;0.80;0.80;;;1.40;99.90;;;;;;4294424;32;20090;-74
2023/01/20 08:06:25;;;;;;;0.60;0.60;;;1.40;99.90;;;;;;4344154;32;21366;-74
2023/01/20 08:08:52;;;;;;;2.00;1.80;;;1.40;99.90;;;;;;4365978;32;20632;-73
2023/01/20 08:11:19;;;;;;;0.60;0.60;;;1.50;99.90;;;;;;4363311;32;20383;-74
2023/01/20 08:13:45;;;;;;;0.60;0.60;;;1.50;99.90;;;;;;4363721;32;20581;-74
2023/01/20 08:16:13;;;;;;;3.87;1.52;;;1.60;99.90;;;;;;4353116;32;20086;-74
2023/01/20 08:18:39;;;;;;;1.80;0.98;;;1.80;99.90;;;;;;4358463;32;20134;-76
2023/01/20 08:21:07;;;;;;;3.40;2.10;;;1.80;99.90;;;;;;4355154;32;20113;-74
2023/01/20 08:23:35;;;;;;;1.20;1.12;;;1.80;99.90;;;;;;4342994;32;20919;-73
2023/01/20 08:26:03;;;;;;;1.65;1.42;;;1.80;99.90;;;;;;4343319;32;20101;-74
2023/01/20 08:28:29;;;;;;;0.85;0.85;;;1.70;99.90;;;;;;4345294;32;20401;-75
2023/01/20 08:31:01;;;;;;;2.42;1.17;;;1.70;99.90;;;;;;4319611;32;20301;-74
2023/01/20 08:33:29;;;;;;;9.23;2.20;;;1.60;99.90;;;;;;4328748;32;20265;-75
2023/01/20 08:35:55;;;;;;;8.88;2.35;;;1.60;99.90;;;;;;4350052;32;20078;-75
2023/01/20 08:38:21;;;;;;;1.05;1.00;;;1.60;99.90;;;;;;4364555;32;20114;-75
2023/01/20 08:40:46;;;;;;;1.33;0.85;;;1.70;99.90;;;;;;4368761;32;20699;-74
2023/01/20 08:43:14;;;;;;;1.45;1.35;;;1.70;99.90;;;;;;4373657;32;20139;-74
2023/01/20 08:45:42;;;;;;;0.70;0.70;;;1.80;99.90;;;;;;4368102;32;20085;-74
2023/01/20 08:48:09;;;;;;;2.20;1.40;;;1.90;99.90;;;;;;4372131;32;20108;-75
2023/01/20 08:50:35;;;;;;;0.82;0.82;;;2.00;99.90;;;;;;4358659;32;20718;-74
2023/01/20 08:53:01;;;;;;;1.25;0.93;;;2.10;99.90;;;;;;4350235;32;20105;-75
2023/01/20 08:55:26;;;;;;;2.10;1.45;;;2.10;99.90;;;;;;4350712;32;20326;-74
2023/01/20 08:57:51;;;;;;;4.57;1.95;;;2.20;99.90;;;;;;4346149;32;21509;-76
2023/01/20 09:00:17;;;;;;;2.37;1.80;;;2.20;99.90;;;;;;4344051;32;20556;-76
2023/01/20 09:02:43;;;;;;;1.65;1.55;;;2.20;99.90;;;;;;4347618;32;20316;-73
2023/01/20 09:05:09;;;;;;;4.53;1.77;;;2.00;99.90;;;;;;4349005;32;20397;-75
2023/01/20 09:07:35;;;;;;;0.62;0.62;;;2.00;99.90;;;;;;4354985;32;20089;-75
2023/01/20 09:10:00;;;;;;;2.17;1.87;;;2.00;99.90;;;;;;4361674;32;20459;-74
2023/01/20 09:12:26;;;;;;;1.42;1.33;;;2.00;99.90;;;;;;4354787;32;20093;-74
2023/01/20 09:14:52;;;;;;;0.75;0.75;;;2.00;99.90;;;;;;4364870;32;20208;-75
2023/01/20 09:17:18;;;;;;;0.98;0.95;;;2.00;99.90;;;;;;4348178;32;20562;-74
2023/01/20 09:19:43;;;;;;;2.53;1.30;;;2.10;99.90;;;;;;4349913;32;20522;-74
2023/01/20 09:22:09;;;;;;;2.40;1.02;;;2.00;99.90;;;;;;4352834;32;20105;-75
2023/01/20 09:24:34;;;;;;;1.12;1.02;;;2.10;99.90;;;;;;4342454;32;20917;-75
2023/01/20 09:27:00;;;;;;;1.20;1.17;;;2.10;99.90;;;;;;4334276;32;20287;-75
2023/01/20 09:29:25;;;;;;;3.83;1.23;;;2.20;99.90;;;;;;4332549;32;21653;-75
2023/01/20 09:31:56;;;;;;;5.20;1.90;;;2.20;99.90;;;;;;4332114;32;20790;-75
2023/01/20 09:34:23;;;;;;;0.90;0.90;;;2.30;99.90;;;;;;4343103;32;20456;-74
2023/01/20 09:36:51;;;;;;;1.30;1.25;;;2.30;99.90;;;;;;4346776;32;20135;-75
2023/01/20 09:43:59;;;;;;;1.08;1.00;;;2.20;99.90;;;;;;4366147;32;20153;-75
2023/01/20 09:45:23;;;;;;;0.70;0.70;;;2.30;99.90;;;;;;4359192;32;20119;-74
2023/01/20 09:47:49;;;;;;;1.12;1.12;;;2.40;99.90;;;;;;4368168;32;20527;-74
2023/01/20 09:53:15;;;;;;;0.45;0.45;;;2.30;99.90;;;;;;4400796;26;20244;-66
2023/01/20 09:53:38;;;;;;;0.95;0.95;;;2.30;99.90;;;;;;4378137;32;20602;-67
2023/01/20 09:56:15;;;;;;;1.25;1.17;;;2.20;99.90;;;;;;4389318;32;20140;-68
2023/01/20 09:58:52;;;;;;;0.98;0.93;;;2.30;99.90;;;;;;4386406;32;20153;-68
2023/01/20 10:01:23;;;;;;;1.50;1.40;;;2.30;99.90;;;;;;4369949;32;20443;-67
2023/01/20 10:03:59;;;;;;;1.12;1.08;;;2.40;99.90;;;;;;4373420;32;21194;-67
2023/01/20 10:06:33;;;;;;;1.27;1.17;;;2.40;99.90;;;;;;4379881;32;20125;-67
2023/01/20 10:09:04;;;;;;;0.57;0.57;;;2.40;99.90;;;;;;4382797;32;20112;-67
2023/01/20 10:11:36;;;;;;;1.00;0.90;;;2.30;99.90;;;;;;4388815;32;20327;-67
2023/01/20 10:14:07;;;;;;;0.60;0.60;;;2.30;99.90;;;;;;4387737;32;20104;-68
2023/01/20 10:16:40;;;;;;;3.33;1.48;;;2.20;99.90;;;;;;4375659;32;20446;-69
2023/01/20 10:19:15;;;;;;;1.98;1.42;;;2.20;99.90;;;;;;4373430;32;21047;-68
2023/01/20 10:21:50;;;;;;;2.50;1.33;;;2.20;99.90;;;;;;4370827;32;20108;-68
2023/01/20 10:24:23;;;;;;;0.55;0.55;;;2.30;99.90;;;;;;4374992;32;21809;-68
2023/01/20 10:26:57;;;;;;;1.23;1.15;;;2.30;99.90;;;;;;4376035;32;21562;-68
2023/01/20 10:29:43;;;;;;;1.25;1.15;;;2.40;99.90;;;;;;4381296;32;20307;-68
2023/01/20 10:32:21;;;;;;;1.90;1.70;;;2.40;99.90;;;;;;4385436;32;20243;-70
2023/01/20 10:34:52;;;;;;;1.23;1.15;;;2.40;99.90;;;;;;4383866;32;20083;-68
2023/01/20 10:37:18;;;;;;;0.90;0.90;;;2.50;99.90;;;;;;4394146;32;20290;-69
2023/01/20 10:39:51;;;;;;;2.05;0.60;;;2.50;99.90;;;;;;4387951;32;20121;-69
2023/01/20 10:42:18;;;;;;;1.70;1.12;;;2.60;99.90;;;;;;4390587;32;20318;-67
2023/01/20 10:44:46;;;;;;;3.58;1.73;;;2.60;99.90;;;;;;4389804;32;20120;-68
2023/01/20 10:47:37;;;;;;;0.70;0.70;;;2.60;99.90;;;;;;4387096;32;20876;-67
2023/01/20 10:50:18;;;;;;;0.85;0.85;;;2.60;99.90;;;;;;4377511;32;20471;-68
2023/01/20 10:53:00;;;;;;;1.08;0.98;;;2.60;99.90;;;;;;4397803;32;20133;-68
2023/01/20 10:56:05;;;;;;;6.87;1.85;;;2.70;99.90;;;;;;4381659;32;21423;-70
2023/01/20 10:58:34;;;;;;;1.20;1.10;;;2.60;99.90;;;;;;4381543;32;20228;-66
2023/01/20 11:01:03;;;;;;;1.10;0.93;;;2.50;99.90;;;;;;4385321;32;20108;-67
2023/01/20 11:03:35;;;;;;;8.00;2.15;;;2.60;99.90;;;;;;4384731;32;21017;-67
2023/01/20 11:06:02;;;;;;;0.60;0.60;;;2.50;99.90;;;;;;4379771;32;21019;-66
2023/01/20 11:08:29;;;;;;;0.70;0.70;;;2.50;99.90;;;;;;4391381;32;20677;-68
2023/01/20 11:11:00;;;;;;;0.70;0.70;;;2.50;99.90;;;;;;4388747;32;20199;-68
2023/01/20 11:13:26;;;;;;;1.12;1.02;;;2.60;99.90;;;;;;4392429;32;21142;-66
2023/01/20 11:15:57;;;;;;;0.73;0.65;;;2.60;99.90;;;;;;4389337;32;20128;-67
2023/01/20 11:18:26;;;;;;;0.90;0.90;;;2.60;99.90;;;;;;4386876;32;21037;-67
2023/01/20 11:21:01;;;;;;;0.68;0.68;;;2.50;99.90;;;;;;4403976;32;20869;-66
2023/01/20 11:23:37;;;;;;;1.87;1.23;;;2.40;99.90;;;;;;4413415;32;20101;-68
2023/01/20 11:26:09;;;;;;;1.87;1.45;;;2.40;99.90;;;;;;4417675;32;20273;-67
2023/01/20 11:28:48;;;;;;;0.98;0.98;;;2.50;99.90;;;;;;4424563;32;20267;-67
2023/01/20 11:31:14;;;;;;;3.03;2.33;;;2.60;99.90;;;;;;4414934;32;20117;-66
2023/01/20 11:33:52;;;;;;;1.23;1.12;;;2.70;99.90;;;;;;4418873;32;20117;-67
2023/01/20 11:36:20;;;;;;;3.30;1.02;;;2.70;99.90;;;;;;4432090;32;20090;-67
2023/01/20 11:38:49;;;;;;;27.62;1.85;;;2.70;99.90;;;;;;4430268;32;20100;-67
2023/01/20 11:41:23;;;;;;;1.23;1.12;;;2.70;99.90;;;;;;4425675;32;104745;-67
2023/01/20 11:43:54;;;;;;;0.70;0.70;;;2.80;99.90;;;;;;4428133;32;20138;-68
2023/01/20 11:46:28;;;;;;;1.73;1.20;;;2.80;99.90;;;;;;4428004;32;20245;-68
2023/01/20 11:49:11;;;;;;;0.75;0.75;;;2.80;99.90;;;;;;4412441;32;20331;-69
2023/01/20 11:51:47;;;;;;;0.95;0.95;;;2.70;99.90;;;;;;4415385;32;20089;-68
2023/01/20 11:54:16;;;;;;;1.00;1.00;;;2.60;99.90;;;;;;4422242;32;20085;-67
2023/01/20 11:56:44;;;;;;;2.30;0.98;;;2.70;99.90;;;;;;4417467;32;20081;-68
2023/01/20 11:59:22;;;;;;;0.60;0.60;;;2.80;99.90;;;;;;4404618;32;20137;-68
2023/01/20 12:01:56;;;;;;;0.80;0.80;;;2.70;99.90;;;;;;4407580;32;20072;-68
2023/01/20 12:04:35;;;;;;;0.50;0.50;;;2.80;99.90;;;;;;4410196;32;20102;-68
2023/01/20 12:07:07;;;;;;;0.68;0.68;;;2.90;99.90;;;;;;4435023;32;20128;-67
2023/01/20 12:09:37;;;;;;;0.50;0.50;;;2.90;99.90;;;;;;4428682;32;20086;-68
2023/01/20 12:12:13;;;;;;;0.93;0.93;;;3.10;99.90;;;;;;4426197;32;20088;-68
2023/01/20 12:14:47;;;;;;;6.70;1.08;;;3.00;99.90;;;;;;4420710;32;20089;-69
2023/01/20 12:17:44;;;;;;;0.40;0.40;;;3.10;99.90;;;;;;4420239;32;20100;-68
2023/01/20 12:20:18;;;;;;;4.40;2.00;;;2.90;99.90;;;;;;4415146;32;20754;-69
2023/01/20 12:22:55;;;;;;;0.60;0.60;;;2.90;99.90;;;;;;4435154;32;20072;-67
2023/01/20 12:25:26;;;;;;;0.50;0.50;;;2.80;99.90;;;;;;4430454;32;20101;-67
2023/01/20 12:27:56;;;;;;;2.58;2.28;;;2.70;99.90;;;;;;4417619;32;20092;-67
2023/01/20 12:30:36;;;;;;;4.40;2.05;;;2.60;99.90;;;;;;4412908;32;20112;-67
2023/01/20 12:33:02;;;;;;;0.60;0.60;;;2.70;99.90;;;;;;4418492;32;20430;-69
2023/01/20 12:35:32;;;;;;;5.15;1.10;;;2.80;99.90;;;;;;4421020;32;20158;-67
2023/01/20 12:38:07;;;;;;;1.40;1.30;;;2.80;99.90;;;;;;4437561;32;20065;-68
2023/01/20 12:40:45;;;;;;;0.50;0.50;;;2.80;99.90;;;;;;4438626;32;20196;-68
2023/01/20 12:43:38;;;;;;;0.98;0.98;;;2.80;99.90;;;;;;4432309;32;20277;-68
2023/01/20 12:46:26;;;;;;;2.87;1.25;;;2.80;99.90;;;;;;4415607;32;20158;-68
2023/01/20 12:49:19;;;;;;;2.42;1.45;;;2.70;99.90;;;;;;4428796;32;20222;-67
2023/01/20 12:52:01;;;;;;;1.25;1.17;;;2.80;99.90;;;;;;4439266;32;20109;-68
2023/01/20 12:54:48;;;;;;;0.60;0.60;;;2.70;99.90;;;;;;4432119;32;20049;-69
2023/01/20 12:57:28;;;;;;;0.55;0.55;;;2.90;99.90;;;;;;4430700;32;20065;-69
2023/01/20 13:00:15;;;;;;;0.82;0.82;;;2.90;99.90;;;;;;4425465;32;20090;-69
2023/01/20 13:02:54;;;;;;;1.08;0.98;;;2.90;99.90;;;;;;4418519;32;20089;-69
2023/01/20 13:06:00;;;;;;;0.70;0.70;;;2.80;99.90;;;;;;4420241;32;20144;-68
2023/01/20 13:08:51;;;;;;;1.98;1.17;;;2.80;99.90;;;;;;4415679;32;20088;-67
2023/01/20 13:11:49;;;;;;;0.90;0.90;;;2.90;99.90;;;;;;4433137;32;20097;-67
2023/01/20 13:14:40;;;;;;;0.40;0.40;;;2.90;99.90;;;;;;4435662;32;20061;-68
2023/01/20 13:17:16;;;;;;;0.80;0.80;;;2.90;99.90;;;;;;4418825;32;20242;-68